createdAt,value
2023-06-30T00:00:38.297Z,2524.00
2023-06-30T00:01:38.367Z,2510.00
2023-06-30T00:02:38.476Z,2509.00
2023-06-30T00:03:38.504Z,2536.00
2023-06-30T00:04:38.487Z,2513.00
2023-06-30T00:05:38.521Z,2507.00
2023-06-30T00:06:38.548Z,2508.00
2023-06-30T00:07:38.895Z,2505.00
2023-06-30T00:08:38.654Z,2525.00
2023-06-30T00:09:38.669Z,2533.00
2023-06-30T00:10:38.732Z,2562.00
2023-06-30T00:11:38.753Z,2565.00
2023-06-30T00:12:38.796Z,2584.00
2023-06-30T00:13:38.827Z,2593.00
2023-06-30T00:14:38.853Z,2598.00
2023-06-30T00:15:38.935Z,2627.00
2023-06-30T00:16:38.979Z,2622.00
2023-06-30T00:17:39.059Z,2610.00
2023-06-30T00:18:39.041Z,2619.00
2023-06-30T00:19:39.092Z,2631.00
2023-06-30T00:20:39.140Z,2641.00
2023-06-30T00:21:39.169Z,2633.00
2023-06-30T00:22:39.184Z,2654.00
2023-06-30T00:23:39.264Z,2642.00
2023-06-30T00:24:39.287Z,2655.00
2023-06-30T00:25:39.326Z,2673.00
2023-06-30T00:26:39.390Z,2678.00
2023-06-30T00:27:39.415Z,2674.00
2023-06-30T00:28:39.446Z,2671.00
2023-06-30T00:29:39.468Z,2661.00
2023-06-30T00:30:39.540Z,2687.00
2023-06-30T00:31:39.657Z,2700.00
2023-06-30T00:32:39.666Z,2690.00
2023-06-30T00:33:39.653Z,2718.00
2023-06-30T00:34:39.703Z,2720.00
2023-06-30T00:35:39.754Z,2718.00
2023-06-30T00:36:39.770Z,2723.00
2023-06-30T00:37:39.824Z,2717.00
2023-06-30T00:38:39.955Z,2724.00
2023-06-30T00:39:39.891Z,2722.00
2023-06-30T00:40:39.945Z,2719.00
2023-06-30T00:41:39.989Z,2727.00
2023-06-30T00:42:40.033Z,2718.00
2023-06-30T00:43:40.069Z,2740.00
2023-06-30T00:44:40.130Z,2727.00
2023-06-30T00:45:40.164Z,2739.00
2023-06-30T00:46:40.237Z,2726.00
2023-06-30T00:47:40.315Z,2723.00
2023-06-30T00:48:40.276Z,2740.00
2023-06-30T00:49:40.314Z,2756.00
2023-06-30T00:50:40.385Z,2776.00
2023-06-30T00:51:40.413Z,2780.00
2023-06-30T00:52:40.457Z,2760.00
2023-06-30T00:53:40.507Z,2793.00
2023-06-30T00:54:40.552Z,2790.00
2023-06-30T00:55:40.577Z,2774.00
2023-06-30T00:56:40.607Z,2770.00
2023-06-30T00:57:40.675Z,2777.00
2023-06-30T00:58:40.707Z,2772.00
2023-06-30T00:59:40.753Z,2786.00
2023-06-30T01:00:40.801Z,2789.00
2023-06-30T01:01:40.826Z,2794.00
2023-06-30T01:02:40.949Z,2802.00
2023-06-30T01:03:41.007Z,2805.00
2023-06-30T01:04:41.044Z,2799.00
2023-06-30T01:05:41.043Z,2787.00
2023-06-30T01:06:41.044Z,2811.00
2023-06-30T01:07:41.141Z,2813.00
2023-06-30T01:08:41.113Z,2820.00
2023-06-30T01:09:41.186Z,2832.00
2023-06-30T01:10:41.224Z,2814.00
2023-06-30T01:11:41.256Z,2816.00
2023-06-30T01:12:41.293Z,2804.00
2023-06-30T01:13:41.351Z,2831.00
2023-06-30T01:14:41.398Z,2811.00
2023-06-30T01:15:41.418Z,2812.00
2023-06-30T01:16:41.541Z,2826.00
2023-06-30T01:17:41.610Z,2827.00
2023-06-30T01:18:41.546Z,2827.00
2023-06-30T01:19:41.565Z,2821.00
2023-06-30T01:20:41.617Z,2814.00
2023-06-30T01:21:41.689Z,2815.00
2023-06-30T01:22:41.702Z,2820.00
2023-06-30T01:23:41.761Z,2822.00
2023-06-30T01:24:41.834Z,2826.00
2023-06-30T01:25:41.813Z,2812.00
2023-06-30T01:26:41.865Z,2833.00
2023-06-30T01:27:41.899Z,2833.00
2023-06-30T01:28:41.963Z,2825.00
2023-06-30T01:29:42.019Z,2822.00
2023-06-30T01:30:42.083Z,2807.00
2023-06-30T01:31:42.117Z,2823.00
2023-06-30T01:32:42.176Z,2826.00
2023-06-30T01:33:42.178Z,2824.00
2023-06-30T01:34:42.234Z,2824.00
2023-06-30T01:35:42.315Z,2833.00
2023-06-30T01:36:42.313Z,2844.00
2023-06-30T01:37:42.340Z,2871.00
2023-06-30T01:38:42.400Z,2865.00
2023-06-30T01:39:42.446Z,2869.00
2023-06-30T01:40:42.492Z,2880.00
2023-06-30T01:41:42.516Z,2873.00
2023-06-30T01:42:42.550Z,2869.00
2023-06-30T01:43:42.617Z,2861.00
2023-06-30T01:44:42.647Z,2863.00
2023-06-30T01:45:42.767Z,2863.00
2023-06-30T01:46:42.870Z,2857.00
2023-06-30T01:47:42.767Z,2852.00
2023-06-30T01:48:42.831Z,2854.00
2023-06-30T01:49:42.850Z,2844.00
2023-06-30T01:50:42.875Z,2864.00
2023-06-30T01:51:42.908Z,2855.00
2023-06-30T01:52:42.995Z,2857.00
2023-06-30T01:53:43.012Z,2869.00
2023-06-30T01:54:43.059Z,2866.00
2023-06-30T01:55:43.145Z,2872.00
2023-06-30T01:56:43.158Z,2869.00
2023-06-30T01:57:43.177Z,2859.00
2023-06-30T01:58:43.242Z,2852.00
2023-06-30T01:59:43.293Z,2873.00
2023-06-30T02:00:43.304Z,2872.00
2023-06-30T02:01:43.358Z,2881.00
2023-06-30T02:02:43.472Z,2878.00
2023-06-30T02:03:43.513Z,2882.00
2023-06-30T02:04:43.447Z,2880.00
2023-06-30T02:05:43.776Z,2893.00
2023-06-30T02:06:43.550Z,2875.00
2023-06-30T02:07:43.583Z,2875.00
2023-06-30T02:08:43.631Z,2870.00
2023-06-30T02:09:48.460Z,2882.00
2023-06-30T02:10:44.687Z,2882.00
2023-06-30T02:11:43.653Z,2883.00
2023-06-30T02:12:43.638Z,2884.00
2023-06-30T02:13:43.655Z,2893.00
2023-06-30T02:14:43.616Z,2899.00
2023-06-30T02:15:43.868Z,2900.00
2023-06-30T02:16:43.676Z,2896.00
2023-06-30T02:17:43.666Z,2897.00
2023-06-30T02:18:43.604Z,2894.00
2023-06-30T02:19:43.581Z,2892.00
2023-06-30T02:20:43.613Z,2906.00
2023-06-30T02:21:43.586Z,2896.00
2023-06-30T02:22:43.587Z,2901.00
2023-06-30T02:23:43.572Z,2901.00
2023-06-30T02:24:43.642Z,2911.00
2023-06-30T02:25:43.973Z,2887.00
2023-06-30T02:26:43.734Z,2900.00
2023-06-30T02:27:43.801Z,2904.00
2023-06-30T02:28:43.807Z,2907.00
2023-06-30T02:29:43.868Z,2900.00
2023-06-30T02:30:43.916Z,2899.00
2023-06-30T02:31:44.020Z,2887.00
2023-06-30T02:32:44.017Z,2901.00
2023-06-30T02:33:44.044Z,2901.00
2023-06-30T02:34:44.104Z,2905.00
2023-06-30T02:35:44.547Z,2902.00
2023-06-30T02:36:44.176Z,2914.00
2023-06-30T02:37:44.224Z,2912.00
2023-06-30T02:38:44.273Z,2923.00
2023-06-30T02:39:44.332Z,2915.00
2023-06-30T02:40:44.357Z,2928.00
2023-06-30T02:41:44.424Z,2928.00
2023-06-30T02:42:44.464Z,2939.00
2023-06-30T02:43:44.457Z,2936.00
2023-06-30T02:44:44.534Z,2929.00
2023-06-30T02:45:45.017Z,2943.00
2023-06-30T02:46:44.633Z,2938.00
2023-06-30T02:47:44.755Z,2930.00
2023-06-30T02:48:44.715Z,2917.00
2023-06-30T02:49:44.778Z,2917.00
2023-06-30T02:50:44.799Z,2917.00
2023-06-30T02:51:44.851Z,2911.00
2023-06-30T02:52:44.912Z,2900.00
2023-06-30T02:53:44.954Z,2897.00
2023-06-30T02:54:44.988Z,2920.00
2023-06-30T02:55:45.328Z,2905.00
2023-06-30T02:56:45.080Z,2898.00
2023-06-30T02:57:45.119Z,2900.00
2023-06-30T02:58:45.169Z,2900.00
2023-06-30T02:59:45.229Z,2888.00
2023-06-30T03:00:45.276Z,2899.00
2023-06-30T03:01:45.417Z,2893.00
2023-06-30T03:02:45.394Z,2894.00
2023-06-30T03:03:45.534Z,2896.00
2023-06-30T03:04:45.432Z,2901.00
2023-06-30T03:05:45.682Z,2892.00
2023-06-30T03:06:45.563Z,2892.00
2023-06-30T03:07:45.573Z,2903.00
2023-06-30T03:08:45.618Z,2895.00
2023-06-30T03:09:45.669Z,2895.00
2023-06-30T03:10:45.708Z,2907.00
2023-06-30T03:11:45.778Z,2901.00
2023-06-30T03:12:45.788Z,2909.00
2023-06-30T03:13:45.830Z,2880.00
2023-06-30T03:14:45.923Z,2892.00
2023-06-30T03:15:46.251Z,2899.00
2023-06-30T03:16:46.106Z,2904.00
2023-06-30T03:17:46.066Z,2875.00
2023-06-30T03:18:46.101Z,2884.00
2023-06-30T03:19:46.136Z,2890.00
2023-06-30T03:20:46.197Z,2889.00
2023-06-30T03:21:46.239Z,2881.00
2023-06-30T03:22:46.281Z,2894.00
2023-06-30T03:23:46.339Z,2879.00
2023-06-30T03:24:46.366Z,2884.00
2023-06-30T03:25:46.820Z,2887.00
2023-06-30T03:26:46.467Z,2888.00
2023-06-30T03:27:46.517Z,2895.00
2023-06-30T03:28:46.576Z,2881.00
2023-06-30T03:29:46.602Z,2896.00
2023-06-30T03:30:46.712Z,2892.00
2023-06-30T03:31:46.719Z,2896.00
2023-06-30T03:32:46.806Z,2895.00
2023-06-30T03:33:46.810Z,2900.00
2023-06-30T03:34:46.892Z,2886.00
2023-06-30T03:35:47.142Z,2862.00
2023-06-30T03:36:46.960Z,2873.00
2023-06-30T03:37:47.032Z,2891.00
2023-06-30T03:38:47.068Z,2887.00
2023-06-30T03:39:47.092Z,2900.00
2023-06-30T03:40:47.209Z,2890.00
2023-06-30T03:41:47.216Z,2895.00
2023-06-30T03:42:47.252Z,2889.00
2023-06-30T03:43:47.304Z,2889.00
2023-06-30T03:44:47.329Z,2898.00
2023-06-30T03:45:47.726Z,2884.00
2023-06-30T03:46:47.484Z,2886.00
2023-06-30T03:47:47.584Z,2880.00
2023-06-30T03:48:47.531Z,2863.00
2023-06-30T03:49:47.578Z,2862.00
2023-06-30T03:50:47.606Z,2877.00
2023-06-30T03:51:47.656Z,2868.00
2023-06-30T03:52:47.695Z,2866.00
2023-06-30T03:53:47.748Z,2880.00
2023-06-30T03:54:47.797Z,2869.00
2023-06-30T03:55:48.016Z,2867.00
2023-06-30T03:56:47.921Z,2860.00
2023-06-30T03:57:47.958Z,2858.00
2023-06-30T03:58:48.043Z,2855.00
2023-06-30T03:59:48.077Z,2848.00
2023-06-30T04:00:48.133Z,2846.00
2023-06-30T04:01:48.195Z,2847.00
2023-06-30T04:02:48.264Z,2834.00
2023-06-30T04:03:48.432Z,2851.00
2023-06-30T04:04:48.354Z,2844.00
2023-06-30T04:05:48.371Z,2845.00
2023-06-30T04:06:48.411Z,2847.00
2023-06-30T04:07:48.603Z,2849.00
2023-06-30T04:08:48.537Z,2854.00
2023-06-30T04:09:48.613Z,2847.00
2023-06-30T04:10:48.660Z,2855.00
2023-06-30T04:11:48.674Z,2836.00
2023-06-30T04:12:48.744Z,2834.00
2023-06-30T04:13:48.797Z,2835.00
2023-06-30T04:14:48.834Z,2838.00
2023-06-30T04:15:48.883Z,2848.00
2023-06-30T04:16:48.996Z,2841.00
2023-06-30T04:17:49.046Z,2831.00
2023-06-30T04:18:49.024Z,2835.00
2023-06-30T04:19:49.082Z,2837.00
2023-06-30T04:20:49.129Z,2828.00
2023-06-30T04:21:49.222Z,2830.00
2023-06-30T04:22:49.230Z,2830.00
2023-06-30T04:23:49.289Z,2828.00
2023-06-30T04:24:49.361Z,2814.00
2023-06-30T04:25:49.401Z,2820.00
2023-06-30T04:26:49.434Z,2795.00
2023-06-30T04:27:49.491Z,2818.00
2023-06-30T04:28:49.522Z,2805.00
2023-06-30T04:29:49.576Z,2788.00
2023-06-30T04:30:49.646Z,2810.00
2023-06-30T04:31:49.689Z,2803.00
2023-06-30T04:32:49.824Z,2805.00
2023-06-30T04:33:49.792Z,2798.00
2023-06-30T04:34:49.846Z,2800.00
2023-06-30T04:35:50.010Z,2800.00
2023-06-30T04:36:49.921Z,2796.00
2023-06-30T04:37:49.989Z,2799.00
2023-06-30T04:38:50.104Z,2795.00
2023-06-30T04:39:50.143Z,2785.00
2023-06-30T04:40:50.150Z,2783.00
2023-06-30T04:41:50.207Z,2782.00
2023-06-30T04:42:50.240Z,2771.00
2023-06-30T04:43:50.284Z,2778.00
2023-06-30T04:44:50.348Z,2782.00
2023-06-30T04:45:50.443Z,2772.00
2023-06-30T04:46:50.433Z,2786.00
2023-06-30T04:47:50.607Z,2794.00
2023-06-30T04:48:50.529Z,2791.00
2023-06-30T04:49:50.597Z,2791.00
2023-06-30T04:50:50.632Z,2781.00
2023-06-30T04:51:50.725Z,2776.00
2023-06-30T04:52:50.759Z,2777.00
2023-06-30T04:53:50.789Z,2776.00
2023-06-30T04:54:50.884Z,2750.00
2023-06-30T04:55:50.904Z,2761.00
2023-06-30T04:56:50.975Z,2762.00
2023-06-30T04:57:51.007Z,2754.00
2023-06-30T04:58:51.056Z,2749.00
2023-06-30T04:59:51.120Z,2766.00
2023-06-30T05:00:58.670Z,2761.00
2023-06-30T05:01:51.304Z,2762.00
2023-06-30T05:02:51.258Z,2763.00
2023-06-30T05:03:51.231Z,2766.00
2023-06-30T05:04:51.166Z,2761.00
2023-06-30T05:05:51.193Z,2754.00
2023-06-30T05:06:51.136Z,2766.00
2023-06-30T05:07:51.142Z,2785.00
2023-06-30T05:08:51.096Z,2789.00
2023-06-30T05:09:51.101Z,2786.00
2023-06-30T05:10:51.087Z,2791.00
2023-06-30T05:11:51.121Z,2793.00
2023-06-30T05:12:51.079Z,2798.00
2023-06-30T05:13:51.077Z,2798.00
2023-06-30T05:14:51.048Z,2806.00
2023-06-30T05:15:51.258Z,2795.00
2023-06-30T05:16:51.129Z,2799.00
2023-06-30T05:17:51.113Z,2798.00
2023-06-30T05:18:51.110Z,2793.00
2023-06-30T05:19:51.140Z,2790.00
2023-06-30T05:20:51.193Z,2765.00
2023-06-30T05:21:51.284Z,2781.00
2023-06-30T05:22:51.308Z,2774.00
2023-06-30T05:23:51.361Z,2761.00
2023-06-30T05:24:51.435Z,2761.00
2023-06-30T05:25:51.465Z,2762.00
2023-06-30T05:26:51.543Z,2763.00
2023-06-30T05:27:51.556Z,2750.00
2023-06-30T05:29:00.497Z,2754.00
2023-06-30T05:29:52.617Z,2755.00
2023-06-30T05:30:51.600Z,2755.00
2023-06-30T05:31:51.958Z,2761.00
2023-06-30T05:32:52.378Z,2763.00
2023-06-30T05:33:51.584Z,2771.00
2023-06-30T05:34:51.559Z,2730.00
2023-06-30T05:35:51.574Z,2729.00
2023-06-30T05:36:52.790Z,2722.00
2023-06-30T05:37:51.559Z,2695.00
2023-06-30T05:38:51.564Z,2667.00
2023-06-30T05:39:51.574Z,2673.00
2023-06-30T05:40:51.529Z,2683.00
2023-06-30T05:41:51.823Z,2697.00
2023-06-30T05:42:51.508Z,2716.00
2023-06-30T05:43:51.580Z,2726.00
2023-06-30T05:44:51.530Z,2797.00
2023-06-30T05:45:59.052Z,2883.00
2023-06-30T05:46:51.901Z,2885.00
2023-06-30T05:47:51.584Z,2891.00
2023-06-30T05:48:51.509Z,2904.00
2023-06-30T05:49:51.592Z,2939.00
2023-06-30T05:50:51.505Z,2992.00
2023-06-30T05:51:51.513Z,3044.00
2023-06-30T05:52:51.528Z,3071.00
2023-06-30T05:53:51.516Z,3005.00
2023-06-30T05:54:51.504Z,2977.00
2023-06-30T05:55:51.493Z,2969.00
2023-06-30T05:56:51.861Z,2909.00
2023-06-30T05:57:51.454Z,2854.00
2023-06-30T05:58:51.470Z,2836.00
2023-06-30T05:59:51.441Z,2791.00
2023-06-30T06:00:51.435Z,2752.00
2023-06-30T06:01:51.791Z,2732.00
2023-06-30T06:02:51.568Z,2695.00
2023-06-30T06:03:51.735Z,2675.00
2023-06-30T06:04:51.585Z,2620.00
2023-06-30T06:05:51.826Z,2600.00
2023-06-30T06:06:51.869Z,2608.00
2023-06-30T06:07:51.388Z,2575.00
2023-06-30T06:08:51.467Z,2515.00
2023-06-30T06:09:51.406Z,2490.00
2023-06-30T06:10:52.339Z,2411.00
2023-06-30T06:11:51.371Z,2415.00
2023-06-30T06:12:51.392Z,2406.00
2023-06-30T06:13:51.359Z,2409.00
2023-06-30T06:14:51.355Z,2425.00
2023-06-30T06:15:51.319Z,2414.00
2023-06-30T06:16:51.381Z,2421.00
2023-06-30T06:17:51.421Z,2406.00
2023-06-30T06:18:51.446Z,2424.00
2023-06-30T06:19:51.368Z,2418.00
2023-06-30T06:20:51.382Z,2460.00
2023-06-30T06:21:51.363Z,2496.00
2023-06-30T06:22:51.859Z,2534.00
2023-06-30T06:23:51.396Z,2555.00
2023-06-30T06:24:51.478Z,2576.00
2023-06-30T06:25:51.554Z,2603.00
2023-06-30T06:26:51.391Z,2586.00
2023-06-30T06:27:51.863Z,2558.00
2023-06-30T06:28:51.470Z,2537.00
2023-06-30T06:29:51.485Z,2534.00
2023-06-30T06:30:51.579Z,2529.00
2023-06-30T06:31:51.565Z,2558.00
2023-06-30T06:32:51.889Z,2541.00
2023-06-30T06:33:53.296Z,2516.00
2023-06-30T06:34:51.614Z,2502.00
2023-06-30T06:35:51.619Z,2483.00
2023-06-30T06:36:51.609Z,2468.00
2023-06-30T06:37:51.565Z,2449.00
2023-06-30T06:38:51.592Z,2432.00
2023-06-30T06:39:51.582Z,2425.00
2023-06-30T06:40:51.603Z,2414.00
2023-06-30T06:41:51.553Z,2410.00
2023-06-30T06:42:51.838Z,2399.00
2023-06-30T06:43:51.539Z,2442.00
2023-06-30T06:44:51.607Z,2460.00
2023-06-30T06:45:51.527Z,2463.00
2023-06-30T06:46:51.510Z,2456.00
2023-06-30T06:47:51.928Z,2481.00
2023-06-30T06:48:51.562Z,2510.00
2023-06-30T06:49:51.515Z,2634.00
2023-06-30T06:50:51.528Z,2695.00
2023-06-30T06:51:51.528Z,2799.00
2023-06-30T06:52:51.861Z,2884.00
2023-06-30T06:53:51.485Z,2935.00
2023-06-30T06:54:51.469Z,2912.00
2023-06-30T06:55:51.516Z,2915.00
2023-06-30T06:56:51.460Z,3030.00
2023-06-30T06:57:51.443Z,3085.00
2023-06-30T06:58:51.488Z,3036.00
2023-06-30T06:59:51.761Z,3023.00
2023-06-30T07:00:51.439Z,3019.00
2023-06-30T07:01:51.465Z,2996.00
2023-06-30T07:02:51.489Z,2898.00
2023-06-30T07:03:51.443Z,2826.00
2023-06-30T07:04:51.402Z,2775.00
2023-06-30T07:05:51.410Z,2779.00
2023-06-30T07:06:51.396Z,2749.00
2023-06-30T07:07:51.893Z,2715.00
2023-06-30T07:08:51.383Z,2726.00
2023-06-30T07:09:51.371Z,2719.00
2023-06-30T07:10:51.462Z,2684.00
2023-06-30T07:11:51.354Z,2667.00
2023-06-30T07:12:51.378Z,2666.00
2023-06-30T07:13:51.341Z,2726.00
2023-06-30T07:14:51.345Z,2747.00
2023-06-30T07:15:51.482Z,2727.00
2023-06-30T07:16:51.360Z,2692.00
2023-06-30T07:17:51.508Z,2741.00
2023-06-30T07:18:51.306Z,2746.00
2023-06-30T07:19:51.289Z,2798.00
2023-06-30T07:20:51.306Z,2825.00
2023-06-30T07:21:51.335Z,2817.00
2023-06-30T07:22:51.284Z,2839.00
2023-06-30T07:23:51.325Z,2823.00
2023-06-30T07:24:51.356Z,2800.00
2023-06-30T07:25:51.436Z,2833.00
2023-06-30T07:26:51.481Z,2846.00
2023-06-30T07:27:51.557Z,2842.00
2023-06-30T07:28:51.706Z,2847.00
2023-06-30T07:29:51.676Z,2840.00
2023-06-30T07:30:51.710Z,2830.00
2023-06-30T07:31:51.747Z,2823.00
2023-06-30T07:32:51.875Z,2777.00
2023-06-30T07:33:51.872Z,2763.00
2023-06-30T07:34:51.924Z,2774.00
2023-06-30T07:35:51.978Z,2802.00
2023-06-30T07:36:52.018Z,2801.00
2023-06-30T07:37:52.370Z,2804.00
2023-06-30T07:38:52.181Z,2785.00
2023-06-30T07:39:52.209Z,2794.00
2023-06-30T07:40:56.539Z,2782.00
2023-06-30T07:41:52.306Z,2784.00
2023-06-30T07:42:52.257Z,2783.00
2023-06-30T07:43:52.241Z,2786.00
2023-06-30T07:44:52.231Z,2780.00
2023-06-30T07:45:52.255Z,2795.00
2023-06-30T07:46:52.237Z,2790.00
2023-06-30T07:47:52.333Z,2784.00
2023-06-30T07:48:52.294Z,2779.00
2023-06-30T07:49:52.194Z,2869.00
2023-06-30T07:51:06.884Z,2883.00
2023-06-30T07:51:53.189Z,2884.00
2023-06-30T07:52:52.175Z,2887.00
2023-06-30T07:53:52.220Z,2896.00
2023-06-30T07:54:52.141Z,2921.00
2023-06-30T07:55:52.152Z,2935.00
2023-06-30T07:56:52.116Z,2906.00
2023-06-30T07:57:52.411Z,2881.00
2023-06-30T07:58:52.152Z,2801.00
2023-06-30T07:59:52.164Z,2837.00
2023-06-30T08:00:52.195Z,2832.00
2023-06-30T08:01:52.115Z,2799.00
2023-06-30T08:02:52.308Z,2779.00
2023-06-30T08:03:52.327Z,2769.00
2023-06-30T08:04:52.165Z,2799.00
2023-06-30T08:05:52.404Z,2780.00
2023-06-30T08:06:52.101Z,2752.00
2023-06-30T08:07:52.203Z,2747.00
2023-06-30T08:08:52.131Z,2734.00
2023-06-30T08:09:52.163Z,2735.00
2023-06-30T08:10:52.184Z,2698.00
2023-06-30T08:11:52.290Z,2688.00
2023-06-30T08:12:52.272Z,2648.00
2023-06-30T08:13:52.352Z,2538.00
2023-06-30T08:14:52.328Z,2448.00
2023-06-30T08:15:52.532Z,2434.00
2023-06-30T08:16:52.580Z,2400.00
2023-06-30T08:17:57.465Z,2398.00
2023-06-30T08:18:53.539Z,2396.00
2023-06-30T08:19:52.545Z,2374.00
2023-06-30T08:20:52.443Z,2357.00
2023-06-30T08:21:52.488Z,2396.00
2023-06-30T08:22:52.935Z,2358.00
2023-06-30T08:23:52.473Z,2328.00
2023-06-30T08:24:53.376Z,2304.00
2023-06-30T08:25:52.543Z,2250.00
2023-06-30T08:26:52.574Z,2232.00
2023-06-30T08:27:52.935Z,2242.00
2023-06-30T08:28:52.619Z,2214.00
2023-06-30T08:29:52.619Z,2167.00
2023-06-30T08:30:52.675Z,2160.00
2023-06-30T08:31:52.676Z,2133.00
2023-06-30T08:32:52.962Z,2202.00
2023-06-30T08:33:52.679Z,2172.00
2023-06-30T08:34:52.692Z,2258.00
2023-06-30T08:35:52.712Z,2254.00
2023-06-30T08:36:52.738Z,2278.00
2023-06-30T08:37:54.202Z,2291.00
2023-06-30T08:38:52.740Z,2281.00
2023-06-30T08:39:52.704Z,2330.00
2023-06-30T08:40:52.751Z,2388.00
2023-06-30T08:41:52.743Z,2398.00
2023-06-30T08:42:52.692Z,2433.00
2023-06-30T08:43:52.716Z,2532.00
2023-06-30T08:44:52.702Z,2558.00
2023-06-30T08:45:52.796Z,2588.00
2023-06-30T08:46:52.877Z,2647.00
2023-06-30T08:47:52.883Z,2636.00
2023-06-30T08:48:52.900Z,2587.00
2023-06-30T08:49:52.949Z,2535.00
2023-06-30T08:50:53.023Z,2583.00
2023-06-30T08:51:53.051Z,2624.00
2023-06-30T08:52:53.131Z,2610.00
2023-06-30T08:53:53.404Z,2625.00
2023-06-30T08:54:53.253Z,2638.00
2023-06-30T08:55:53.305Z,2637.00
2023-06-30T08:56:53.367Z,2638.00
2023-06-30T08:57:53.491Z,2642.00
2023-06-30T08:58:53.492Z,2645.00
2023-06-30T08:59:53.624Z,2641.00
2023-06-30T09:00:53.712Z,2651.00
2023-06-30T09:01:53.690Z,2681.00
2023-06-30T09:02:53.755Z,2684.00
2023-06-30T09:03:54.002Z,2674.00
2023-06-30T09:04:53.917Z,2701.00
2023-06-30T09:05:53.954Z,2733.00
2023-06-30T09:06:53.993Z,2753.00
2023-06-30T09:07:54.020Z,2786.00
2023-06-30T09:08:54.114Z,2816.00
2023-06-30T09:09:54.158Z,2797.00
2023-06-30T09:10:54.238Z,2769.00
2023-06-30T09:11:54.275Z,2736.00
2023-06-30T09:12:54.342Z,2782.00
2023-06-30T09:13:54.430Z,2855.00
2023-06-30T09:14:54.507Z,2839.00
2023-06-30T09:15:54.549Z,2883.00
2023-06-30T09:16:54.594Z,2918.00
2023-06-30T09:17:54.623Z,2934.00
2023-06-30T09:18:54.961Z,2940.00
2023-06-30T09:19:54.816Z,2988.00
2023-06-30T09:20:54.835Z,2992.00
2023-06-30T09:21:54.852Z,2918.00
2023-06-30T09:22:56.782Z,2944.00
2023-06-30T09:23:55.446Z,2867.00
2023-06-30T09:24:55.015Z,2855.00
2023-06-30T09:25:55.146Z,2858.00
2023-06-30T09:26:55.133Z,2880.00
2023-06-30T09:27:55.234Z,2887.00
2023-06-30T09:28:55.549Z,2858.00
2023-06-30T09:29:55.446Z,2830.00
2023-06-30T09:30:55.429Z,2802.00
2023-06-30T09:31:55.521Z,2728.00
2023-06-30T09:32:55.565Z,2666.00
2023-06-30T09:33:55.530Z,2642.00
2023-06-30T09:34:55.602Z,2653.00
2023-06-30T09:35:55.578Z,2763.00
2023-06-30T09:36:55.688Z,2769.00
2023-06-30T09:37:55.680Z,2839.00
2023-06-30T09:38:55.627Z,2915.00
2023-06-30T09:39:55.661Z,2992.00
2023-06-30T09:40:55.620Z,3011.00
2023-06-30T09:41:55.669Z,3049.00
2023-06-30T09:42:55.740Z,3052.00
2023-06-30T09:43:55.797Z,3091.00
2023-06-30T09:44:55.855Z,3123.00
2023-06-30T09:45:55.931Z,3116.00
2023-06-30T09:46:55.993Z,3135.00
2023-06-30T09:47:56.190Z,3069.00
2023-06-30T09:48:56.454Z,3016.00
2023-06-30T09:49:56.171Z,2965.00
2023-06-30T09:50:56.187Z,2915.00
2023-06-30T09:51:56.244Z,2817.00
2023-06-30T09:52:56.317Z,2777.00
2023-06-30T09:53:56.433Z,2748.00
2023-06-30T09:54:56.441Z,2702.00
2023-06-30T09:55:56.509Z,2664.00
2023-06-30T09:56:56.510Z,2643.00
2023-06-30T09:57:56.589Z,2644.00
2023-06-30T09:58:58.001Z,2606.00
2023-06-30T09:59:56.947Z,2582.00
2023-06-30T10:00:56.705Z,2512.00
2023-06-30T10:01:56.799Z,2510.00
2023-06-30T10:02:56.824Z,2489.00
2023-06-30T10:03:57.074Z,2486.00
2023-06-30T10:04:56.810Z,2501.00
2023-06-30T10:05:56.920Z,2495.00
2023-06-30T10:06:56.953Z,2489.00
2023-06-30T10:07:56.963Z,2490.00
2023-06-30T10:08:57.011Z,2441.00
2023-06-30T10:09:57.464Z,2414.00
2023-06-30T10:10:57.175Z,2412.00
2023-06-30T10:11:57.078Z,2479.00
2023-06-30T10:12:57.184Z,2494.00
2023-06-30T10:13:57.182Z,2508.00
2023-06-30T10:14:57.241Z,2501.00
2023-06-30T10:15:57.266Z,2479.00
2023-06-30T10:16:57.349Z,2475.00
2023-06-30T10:17:57.449Z,2451.00
2023-06-30T10:18:57.419Z,2434.00
2023-06-30T10:19:57.491Z,2395.00
2023-06-30T10:20:57.538Z,2415.00
2023-06-30T10:21:57.639Z,2435.00
2023-06-30T10:22:57.676Z,2471.00
2023-06-30T10:23:57.690Z,2458.00
2023-06-30T10:24:57.845Z,2469.00
2023-06-30T10:25:58.058Z,2458.00
2023-06-30T10:26:57.897Z,2451.00
2023-06-30T10:27:57.942Z,2425.00
2023-06-30T10:28:58.005Z,2406.00
2023-06-30T10:29:58.102Z,2414.00
2023-06-30T10:30:58.143Z,2463.00
2023-06-30T10:31:58.284Z,2528.00
2023-06-30T10:32:58.339Z,2562.00
2023-06-30T10:33:58.343Z,2597.00
2023-06-30T10:34:58.540Z,2623.00
2023-06-30T10:35:58.466Z,2666.00
2023-06-30T10:36:58.511Z,2713.00
2023-06-30T10:37:58.567Z,2730.00
2023-06-30T10:38:58.585Z,2764.00
2023-06-30T10:39:58.950Z,2774.00
2023-06-30T10:40:58.721Z,2785.00
2023-06-30T10:41:58.757Z,2839.00
2023-06-30T10:42:58.765Z,2894.00
2023-06-30T10:43:58.839Z,2917.00
2023-06-30T10:44:58.868Z,2946.00
2023-06-30T10:45:58.891Z,2949.00
2023-06-30T10:46:59.072Z,2951.00
2023-06-30T10:47:59.026Z,2960.00
2023-06-30T10:48:58.994Z,2957.00
2023-06-30T10:49:59.070Z,3000.00
2023-06-30T10:50:59.106Z,3031.00
2023-06-30T10:51:59.188Z,3029.00
2023-06-30T10:52:59.201Z,3023.00
2023-06-30T10:53:59.239Z,3041.00
2023-06-30T10:54:59.494Z,3028.00
2023-06-30T10:55:59.329Z,3023.00
2023-06-30T10:56:59.347Z,3065.00
2023-06-30T10:57:59.404Z,3072.00
2023-06-30T10:58:59.441Z,3071.00
2023-06-30T10:59:59.958Z,3074.00
2023-06-30T11:00:59.500Z,3090.00
2023-06-30T11:01:59.529Z,3075.00
2023-06-30T11:02:59.743Z,3089.00
2023-06-30T11:03:59.963Z,3085.00
2023-06-30T11:05:00.015Z,3107.00
2023-06-30T11:05:59.678Z,3101.00
2023-06-30T11:06:59.765Z,3105.00
2023-06-30T11:07:59.754Z,3112.00
2023-06-30T11:08:59.776Z,3019.00
2023-06-30T11:09:59.857Z,2977.00
2023-06-30T11:10:59.865Z,2973.00
2023-06-30T11:11:59.888Z,2956.00
2023-06-30T11:12:59.988Z,2959.00
2023-06-30T11:13:59.997Z,2971.00
2023-06-30T11:15:00.105Z,2964.00
2023-06-30T11:16:00.124Z,2990.00
2023-06-30T11:17:00.134Z,2999.00
2023-06-30T11:18:00.275Z,2993.00
2023-06-30T11:19:00.403Z,3004.00
2023-06-30T11:20:00.460Z,3026.00
2023-06-30T11:21:00.351Z,3049.00
2023-06-30T11:22:00.336Z,3046.00
2023-06-30T11:23:00.357Z,3054.00
2023-06-30T11:24:00.436Z,3060.00
2023-06-30T11:25:00.440Z,3068.00
2023-06-30T11:26:00.483Z,3080.00
2023-06-30T11:27:00.504Z,3084.00
2023-06-30T11:28:00.568Z,3082.00
2023-06-30T11:29:00.592Z,3074.00
2023-06-30T11:30:00.695Z,3089.00
2023-06-30T11:31:03.743Z,3067.00
2023-06-30T11:32:00.660Z,3084.00
2023-06-30T11:33:00.761Z,3080.00
2023-06-30T11:34:00.641Z,3059.00
2023-06-30T11:35:00.643Z,3055.00
2023-06-30T11:36:00.701Z,3041.00
2023-06-30T11:37:00.628Z,3045.00
2023-06-30T11:38:00.643Z,3038.00
2023-06-30T11:39:00.599Z,3032.00
2023-06-30T11:40:00.661Z,3036.00
2023-06-30T11:41:00.719Z,3040.00
2023-06-30T11:42:00.595Z,3038.00
2023-06-30T11:43:00.586Z,3034.00
2023-06-30T11:44:00.596Z,3043.00
2023-06-30T11:45:00.582Z,3043.00
2023-06-30T11:46:02.634Z,3034.00
2023-06-30T11:47:00.773Z,3036.00
2023-06-30T11:48:00.768Z,3035.00
2023-06-30T11:49:00.823Z,3035.00
2023-06-30T11:50:00.824Z,3038.00
2023-06-30T11:51:00.868Z,3039.00
2023-06-30T11:52:02.251Z,3039.00
2023-06-30T11:53:00.905Z,3029.00
2023-06-30T11:54:00.897Z,3020.00
2023-06-30T11:55:00.957Z,3023.00
2023-06-30T11:56:00.961Z,3015.00
2023-06-30T11:57:00.973Z,3004.00
2023-06-30T11:58:02.168Z,2998.00
2023-06-30T11:59:01.008Z,3000.00
2023-06-30T12:00:01.104Z,2997.00
2023-06-30T12:01:01.071Z,3003.00
2023-06-30T12:02:01.090Z,2999.00
2023-06-30T12:03:01.216Z,2980.00
2023-06-30T12:04:01.282Z,2987.00
2023-06-30T12:05:01.231Z,2989.00
2023-06-30T12:06:01.251Z,2971.00